This is the latest recevied weather packets stored in our database for station/object F5OZP-13. If no packets are shown the sender has not sent any weather packets the latest 1 day(s).
| Time | Temp. | Humidity | Pressure | Rain* | Wind** | Luminosity | Snow |
|---|---|---|---|---|---|---|---|
| 1778071959 | 14.44° C | 99% | 1015.3 hPa | - | - | 1 W/m² | - |
| 1778070726 | 15° C | 99% | 1015.3 hPa | - | - | 0 W/m² | - |
| 1778067341 | 16.67° C | 99% | 1014.9 hPa | - | - | 2 W/m² | - |
| 1778067033 | 16.67° C | 99% | 1014.9 hPa | - | - | 0 W/m² | - |
| 1778065800 | 18.33° C | 99% | 1014.8 hPa | - | - | 15 W/m² | - |
| 1778064880 | 18.33° C | 99% | 1014.7 hPa | - | - | 15 W/m² | - |
| 1778064572 | 16.67° C | 99% | 1014.8 hPa | - | - | 2 W/m² | - |
| 1778063339 | 15.56° C | 99% | 1014.9 hPa | - | - | 0 W/m² | - |
| 1778063031 | 15° C | 99% | 1014.9 hPa | - | - | 0 W/m² | - |
| 1778062111 | 14.44° C | 99% | 1015 hPa | - | - | 0 W/m² | - |
| 1778060878 | 15.56° C | 99% | 1014.8 hPa | - | - | 0 W/m² | - |
| 1778057493 | 14.44° C | 99% | 1014.4 hPa | - | - | 0 W/m² | - |
| 1778057185 | 14.44° C | 99% | 1014.3 hPa | - | - | 0 W/m² | - |
| 1778056885 | 14.44° C | 99% | 1014.2 hPa | - | - | 0 W/m² | - |
| 1778056568 | 14.44° C | 99% | 1014.2 hPa | - | - | 0 W/m² | - |
| 1778056260 | 15° C | 99% | 1014.2 hPa | - | - | 0 W/m² | - |
| 1778055952 | 15.56° C | 99% | 1014.1 hPa | - | - | 0 W/m² | - |
| 1778055644 | 15.56° C | 99% | 1014 hPa | - | - | 0 W/m² | - |
| 1778055336 | 15.56° C | 99% | 1014.1 hPa | - | - | 0 W/m² | - |
| 1778055036 | 15° C | 99% | 1014.2 hPa | - | - | 0 W/m² | - |
| 1778054724 | 14.44° C | 99% | 1014.2 hPa | - | - | 0 W/m² | - |
| 1778054108 | 13.89° C | 99% | 1014.1 hPa | - | - | 0 W/m² | - |
| 1778053800 | 13.33° C | 99% | 1014.1 hPa | - | - | 0 W/m² | - |
| 1778052875 | 15° C | 99% | 1013.8 hPa | - | - | 0 W/m² | - |
| 1778052567 | 15° C | 99% | 1013.6 hPa | - | - | 0 W/m² | - |
* Rain since midnight (hover to see other rain measurements)
** Current wind speed in m/s (hover to see current wind gust speed)